Beverly, MA (01915)

6:28 PM EST on February 05, 2016 (GMT -0500)
Beverly Cove | | Change Station
CLOSE
Current Station
Personal Weather Station
Location: Beverly, MA
Elevation: 51 ft
Nearby Weather Stations

Elev 51 ft 42.56 °N, 70.85 °W | Updated 2 seconds ago

Overcast
Overcast
28.5 °F
Feels Like 28 °F
N
0.0
Wind Variable Wind from North
Gusts 0.0 mph

Today
High -- | Low -- °F
--% Chance of Precip.
Yesterday
High -- | Low -- °F
Precip. -- in
Pressure 30.03 in
Visibility 10.0 miles
Clouds Mostly Cloudy 6500 ft
Overcast 8000 ft
Windchill 28 °F
Dew Point 28 °F
Humidity 96%
Rainfall 0.18 in
Snow Depth Not available.
6:53 AM 5:01 PM
Waning Crescent, 9% visible
METAR KBVY 052253Z 31011KT 10SM BKN065 OVC080 M01/M06 A3004 RMK AO2 UPB13E18SNE13 SLP169 P0000 T10111056
Pressure 30.03 in
Visibility 10.0 miles
Clouds Mostly Cloudy 6500 ft
Overcast 8000 ft
Windchill 28 °F
Dew Point 28 °F
Humidity 96%
Rainfall 0.18 in
Snow Depth Not available.
6:53 AM 5:01 PM
Waning Crescent, 9% visible
METAR KBVY 052253Z 31011KT 10SM BKN065 OVC080 M01/M06 A3004 RMK AO2 UPB13E18SNE13 SLP169 P0000 T10111056

10-Day Weather Forecast

Almanac

Astronomy

Feb. 05, 2016 Rise Set
Actual Time
Civil Twilight
Nautical Twilight
Astronomical Twilight
Moon
Length of Visible Light
Length of Day
Tomorrow will be .
, % of the Moon is Illuminated

Today's Extremes

State Highs State Lows

Community

WunderPhotos

Upload Photos

1,890,882 photos uploaded!

WunderBlog® & News

Nearby

Air Quality

  Air Quality AQ Index Pollutant
Not available.

Snow Depth

Station Depth Elevation

Earthquake Activity

City Distance Mag. Time & Date
Minimum magnitude displayed is 2.5.

Coastal Water Temperatures

Place Temperature

Stations

Nearby Weather Stations

Station Location Temp. Windchill Dew Point Humidity Wind Precip. Elev Updated Type
                   

Watches & Warnings

Special Statement
Issued: 4:45 PM EST Feb. 5, 2016 – National Weather Service

... Patches of black ice possible overnight into tomorrow...

Temperatures are expected to drop rapidly this evening and
overnight... into the teens and low 20s. This will lead to rapid
freezing of untreated roadways and walkways... which could become
slippery with black ice.

Those commuting are urged to use caution and allow for extra time
as the ice may be difficult to see.


445 PM EST Fri Feb 5 2016

... Patches of black ice possible overnight into tomorrow...

Temperatures are expected to drop rapidly this evening and
overnight... into the teens and low 20s. This will lead to rapid
freezing of untreated roadways and walkways... which could become
slippery with black ice.

Those commuting are urged to use caution and allow for extra time
as the ice may be difficult to see.